Flight Track Log - Related Links

Times and Time Zones

All times are in EST time to prevent confusion due to time zone crossing. See the EGF3796 flight status page for this flight to view local times or setup timezone preferences in your user account.

Time Position Orientation Groundspeed Altitude Reporting Facility
EST Latitude Longitude Course Direction KTS MPH feet Rate Location/Type
Fri 03:36:00 PM 30.6162 -91.3419 319° Northwest  Level Estimated
Fri 03:36:41 PM 30.6314 -91.1294 330° Northwest 256 295 5,800  Level Houston Center
Fri 03:37:00 PM 30.6578 -91.4381 319° Northwest  Level Estimated
Fri 03:37:43 PM 30.6758 -91.1925 309° West 255 293 8,200  Level Houston Center
Fri 03:38:00 PM 30.6992 -91.5343 323° Northwest  Level Estimated
Fri 03:38:45 PM 30.7169 -91.2622 304° West 260 299 10,600  Level Houston Center
Fri 03:39:00 PM 30.7907 -91.5510 351° North  Level FlightAware Approximate
Fri 03:39:48 PM 30.7492 -91.3494 293° West 286 329 12,100  Level Houston Center
Fri 03:40:00 PM 30.8317 -91.6501 300° West  Level Estimated
Fri 03:40:50 PM 30.8014 -91.4597 299° West 317 365 13,900  Level Houston Center
Fri 03:41:52 PM 30.8442 -91.5575 297° West 334 384 15,400 1,742 Climbing Houston Center
Fri 03:42:54 PM 30.8869 -91.6556 297° West 339 390 17,500 1,984 Climbing Houston Center
Fri 03:43:56 PM 30.9281 -91.7472 298° West 326 375 19,500 2,177 Climbing Houston Center
Fri 03:44:58 PM 30.9675 -91.8361 297° West 311 358 22,000 2,516 Climbing Houston Center
Fri 03:46:00 PM 31.0122 -91.9389 297° West 297 342 24,700 2,016 Climbing Houston Center
Fri 03:47:03 PM 31.0494 -92.0239 297° West 296 341 26,200 1,440 Climbing Houston Center
Fri 03:48:05 PM 31.0894 -92.1164 297° West 308 354 27,700 1,452 Climbing Houston Center
Fri 03:49:07 PM 31.1294 -92.2078 297° West 316 364 29,200 1,210 Climbing Houston Center
Fri 03:50:09 PM 31.1706 -92.3022 297° West 326 375 30,200 968 Climbing Houston Center
Fri 03:51:11 PM 31.2131 -92.4019 297° West 340 391 31,200 871 Climbing Houston Center
Fri 03:52:13 PM 31.2575 -92.5067 296° West 355 409 32,000 336 Climbing Houston Center
Fri 03:53:16 PM 31.3089 -92.6414 294° West 374 430 31,900 -48 Descending Houston Center
Fri 03:54:18 PM 31.3539 -92.7597 294° West 393 452 31,900  Level Houston Center
Fri 03:55:20 PM 31.3981 -92.8764 294° West 396 456 31,900  Level Houston Center
Fri 03:56:22 PM 31.4419 -92.9969 293° West 402 463 31,900  Level Houston Center
Fri 03:57:24 PM 31.4875 -93.1175 294° West 407 468 31,900  Level Houston Center
Fri 03:58:26 PM 31.5419 -93.2639 294° West 411 473 31,900 48 Level Houston Center
Fri 03:59:28 PM 31.5831 -93.3728 294° West 411 473 32,000 48 Climbing Houston Center
Fri 04:00:31 PM 31.6381 -93.5219 293° West 416 479 32,000  Level Houston Center
Fri 04:01:33 PM 31.6856 -93.6497 294° West 415 478 32,000  Level Houston Center
Fri 04:02:35 PM 31.7211 -93.7783 288° West 415 478 32,000  Level Houston Center
Fri 04:03:37 PM 31.7456 -93.9100 282° West 415 478 32,000  Level Houston Center
Fri 04:04:39 PM 31.7722 -94.0417 283° West 417 480 32,000  Level Houston Center
Fri 04:05:41 PM 31.7964 -94.1700 283° West 416 479 32,000  Level Houston Center
Fri 04:06:43 PM 31.8286 -94.3314 283° West 415 478 32,000  Level Houston Center
Fri 04:07:46 PM 31.8556 -94.4644 283° West 420 483 32,000  Level Houston Center
Fri 04:08:48 PM 31.8808 -94.5958 283° West 416 479 32,000  Level Houston Center
Fri 04:09:21 PM 31.8972 -94.6775 283° West 420 483 32,000 -568 Level Fort Worth Center
Fri 04:10:23 PM 31.9217 -94.8094 282° West 418 481 31,100 -919 Descending Fort Worth Center
Fri 04:11:25 PM 31.9483 -94.9431 283° West 419 482 30,100 -968 Descending Fort Worth Center
Fri 04:12:27 PM 31.9728 -95.0753 282° West 417 480 29,100 -968 Descending Fort Worth Center
Fri 04:13:29 PM 31.9981 -95.2106 282° West 423 487 28,100 -1,056 Descending Fort Worth Center
Fri 04:14:32 PM 32.0292 -95.3731 283° West 424 488 26,900 -1,056 Descending Fort Worth Center
Fri 04:15:34 PM 32.0533 -95.5072 282° West 420 483 25,900 -919 Descending Fort Worth Center
Fri 04:16:36 PM 32.0761 -95.6286 283° West 420 483 25,000 -1,016 Descending Fort Worth Center
Fri 04:17:38 PM 32.1056 -95.7875 282° West 414 476 23,800 -1,258 Descending Fort Worth Center
Fri 04:18:40 PM 32.1303 -95.9175 283° West 408 470 22,400 -1,694 Descending Fort Worth Center
Fri 04:19:42 PM 32.1539 -96.0458 282° West 402 463 20,300 -1,984 Descending Fort Worth Center
Fri 04:20:44 PM 32.2067 -96.1522 300° West 380 437 18,300 -1,984 Descending Fort Worth Center
Fri 04:21:46 PM 32.2789 -96.2733 305° West 387 445 16,200 -1,935 Descending Fort Worth Center
Fri 04:22:48 PM 32.3372 -96.3708 305° West 368 423 14,300 -1,597 Descending Fort Worth Center
Fri 04:23:50 PM 32.3958 -96.4697 305° West 367 422 12,900 -1,258 Descending Fort Worth Center
Fri 04:24:52 PM 32.4708 -96.5556 316° Northwest 349 402 11,700 -968 Descending Fort Worth Center
Fri 04:25:54 PM 32.5394 -96.6367 315° West 348 400 10,900 -353 Descending Fort Worth Center
Fri 04:27:08 PM 32.6333 -96.7333 319° Northwest 351 404 10,900  Level Dallas / Fort Worth TRACON
Fri 04:28:08 PM 32.7000 -96.8167 314° West 345 397 10,900  Level Dallas / Fort Worth TRACON
Fri 04:29:08 PM 32.7500 -96.8833 312° West 237 273 10,900  Level Dallas / Fort Worth TRACON
Fri 04:30:08 PM 32.8167 -96.9000 348° North 265 305 10,900 -850 Level Dallas / Fort Worth TRACON
Fri 04:31:08 PM 32.8833 -96.9000 360° North 256 295 9,200 -1,800 Descending Dallas / Fort Worth TRACON
Fri 04:32:08 PM 32.9500 -96.9000 360° North 243 280 7,300 -1,810 Descending Dallas / Fort Worth TRACON
Fri 04:33:14 PM 33.0167 -96.9167 348° North 246 283 5,400 -1,190 Descending Dallas / Fort Worth TRACON
Fri 04:34:09 PM 33.0833 -96.9333 348° North 245 282 4,900 -261 Descending Dallas / Fort Worth TRACON
Fri 04:35:09 PM 33.1000 -96.9833 292° West 165 190 4,900 -183 Level Dallas / Fort Worth TRACON
Fri 04:36:20 PM 33.1000 -97.0333 270° West 155 178 4,500 -672 Descending Dallas / Fort Worth TRACON
Fri 04:37:14 PM 33.0667 -97.0500 203° Southwest 142 163 3,500 -850 Descending Dallas / Fort Worth TRACON
Fri 04:38:20 PM 33.0333 -97.0500 180° South 152 175 2,800 -714 Descending Dallas / Fort Worth TRACON
Fri 04:39:20 PM 32.9833 -97.0500 180° South 162 186 2,000 -800 Descending Dallas / Fort Worth TRACON
Fri 04:40:20 PM 32.9500 -97.0500 180° South 123 142 1,200 -800 Descending Dallas / Fort Worth TRACON

Login

Don't have an account? Register now (free) for customized features, flight alerts, and more!